sensor_id;sensor_type;location;lat;lon;timestamp;pressure;altitude;pressure_sealevel;temperature;humidity
6393;BME280;3229;42.674;23.282;2022-07-23T00:01:38;94927.09;;;24.93;51.15
6393;BME280;3229;42.674;23.282;2022-07-23T00:04:06;94933.69;;;24.95;51.43
6393;BME280;3229;42.674;23.282;2022-07-23T00:06:33;94937.56;;;24.93;51.29
6393;BME280;3229;42.674;23.282;2022-07-23T00:09:01;94935.97;;;24.92;51.48
6393;BME280;3229;42.674;23.282;2022-07-23T00:11:28;94935.81;;;24.87;51.80
6393;BME280;3229;42.674;23.282;2022-07-23T00:13:56;94885.75;;;24.53;51.78
6393;BME280;3229;42.674;23.282;2022-07-23T00:16:23;94942.31;;;24.84;52.16
6393;BME280;3229;42.674;23.282;2022-07-23T00:18:50;94950.34;;;24.83;52.03
6393;BME280;3229;42.674;23.282;2022-07-23T00:21:17;94951.38;;;24.82;52.12
6393;BME280;3229;42.674;23.282;2022-07-23T00:23:44;94937.72;;;24.80;51.64
6393;BME280;3229;42.674;23.282;2022-07-23T00:26:12;94945.78;;;24.78;50.84
6393;BME280;3229;42.674;23.282;2022-07-23T00:28:39;94943.81;;;24.73;50.74
6393;BME280;3229;42.674;23.282;2022-07-23T00:31:06;94947.59;;;24.77;50.18
6393;BME280;3229;42.674;23.282;2022-07-23T00:33:33;94950.44;;;24.76;50.08
6393;BME280;3229;42.674;23.282;2022-07-23T00:35:59;94945.66;;;24.73;49.89
6393;BME280;3229;42.674;23.282;2022-07-23T00:38:26;94867.41;;;24.16;49.96
6393;BME280;3229;42.674;23.282;2022-07-23T00:40:53;94845.84;;;24.02;49.79
6393;BME280;3229;42.674;23.282;2022-07-23T00:43:22;94939.53;;;24.61;49.71
6393;BME280;3229;42.674;23.282;2022-07-23T00:45:49;94947.19;;;24.62;50.07
6393;BME280;3229;42.674;23.282;2022-07-23T00:48:16;94875.84;;;24.18;50.29
6393;BME280;3229;42.674;23.282;2022-07-23T00:50:43;94917.66;;;24.37;50.40
6393;BME280;3229;42.674;23.282;2022-07-23T00:53:11;94944.28;;;24.52;50.96
6393;BME280;3229;42.674;23.282;2022-07-23T00:55:39;94944.72;;;24.49;51.22
6393;BME280;3229;42.674;23.282;2022-07-23T00:58:06;94944.59;;;24.44;51.62
6393;BME280;3229;42.674;23.282;2022-07-23T01:00:35;94946.03;;;24.40;51.65
6393;BME280;3229;42.674;23.282;2022-07-23T01:03:02;94943.03;;;24.36;51.75
6393;BME280;3229;42.674;23.282;2022-07-23T01:05:29;94935.84;;;24.32;52.07
6393;BME280;3229;42.674;23.282;2022-07-23T01:07:56;94944.09;;;24.28;52.13
6393;BME280;3229;42.674;23.282;2022-07-23T01:10:23;94942.69;;;24.26;52.50
6393;BME280;3229;42.674;23.282;2022-07-23T01:13:00;94946.75;;;24.22;52.63
6393;BME280;3229;42.674;23.282;2022-07-23T01:15:28;94914.22;;;23.99;52.71
6393;BME280;3229;42.674;23.282;2022-07-23T01:17:56;94916.63;;;24.01;52.66
6393;BME280;3229;42.674;23.282;2022-07-23T01:20:24;94941.00;;;24.13;52.88
6393;BME280;3229;42.674;23.282;2022-07-23T01:22:53;94908.63;;;23.96;53.15
6393;BME280;3229;42.674;23.282;2022-07-23T01:25:20;94925.28;;;24.01;52.85
6393;BME280;3229;42.674;23.282;2022-07-23T01:27:48;94933.25;;;24.07;52.87
6393;BME280;3229;42.674;23.282;2022-07-23T01:30:15;94936.28;;;24.03;52.93
6393;BME280;3229;42.674;23.282;2022-07-23T01:32:42;94866.50;;;23.61;52.86
6393;BME280;3229;42.674;23.282;2022-07-23T01:35:10;94933.31;;;24.00;52.76
6393;BME280;3229;42.674;23.282;2022-07-23T01:37:38;94930.13;;;23.98;52.65
6393;BME280;3229;42.674;23.282;2022-07-23T01:40:07;94915.72;;;23.89;52.85
6393;BME280;3229;42.674;23.282;2022-07-23T01:42:34;94937.59;;;23.94;53.01
6393;BME280;3229;42.674;23.282;2022-07-23T01:45:02;94934.59;;;23.91;52.97
6393;BME280;3229;42.674;23.282;2022-07-23T01:47:29;94922.81;;;23.82;53.09
6393;BME280;3229;42.674;23.282;2022-07-23T01:49:56;94926.44;;;23.81;53.00
6393;BME280;3229;42.674;23.282;2022-07-23T01:52:23;94931.03;;;23.85;53.14
6393;BME280;3229;42.674;23.282;2022-07-23T01:54:50;94934.06;;;23.82;53.23
6393;BME280;3229;42.674;23.282;2022-07-23T01:57:18;94913.28;;;23.69;53.06
6393;BME280;3229;42.674;23.282;2022-07-23T01:59:45;94922.66;;;23.76;53.15
6393;BME280;3229;42.674;23.282;2022-07-23T02:02:12;94934.13;;;23.75;53.21
6393;BME280;3229;42.674;23.282;2022-07-23T02:04:39;94933.53;;;23.73;53.18
6393;BME280;3229;42.674;23.282;2022-07-23T02:07:07;94940.56;;;23.73;53.52
6393;BME280;3229;42.674;23.282;2022-07-23T02:09:34;94937.16;;;23.72;53.50
6393;BME280;3229;42.674;23.282;2022-07-23T02:12:01;94933.16;;;23.70;53.34
6393;BME280;3229;42.674;23.282;2022-07-23T02:14:29;94937.00;;;23.67;53.49
6393;BME280;3229;42.674;23.282;2022-07-23T02:16:56;94840.59;;;23.09;53.12
6393;BME280;3229;42.674;23.282;2022-07-23T02:19:23;94933.00;;;23.65;53.31
6393;BME280;3229;42.674;23.282;2022-07-23T02:21:50;94936.00;;;23.62;53.47
6393;BME280;3229;42.674;23.282;2022-07-23T02:24:17;94938.03;;;23.60;53.48
6393;BME280;3229;42.674;23.282;2022-07-23T02:26:44;94918.25;;;23.45;53.83
6393;BME280;3229;42.674;23.282;2022-07-23T02:29:11;94930.63;;;23.57;53.51
6393;BME280;3229;42.674;23.282;2022-07-23T02:31:39;94795.94;;;22.67;53.54
6393;BME280;3229;42.674;23.282;2022-07-23T02:34:06;94932.06;;;23.52;53.25
6393;BME280;3229;42.674;23.282;2022-07-23T02:36:37;94930.22;;;23.53;53.04
6393;BME280;3229;42.674;23.282;2022-07-23T02:39:06;94943.28;;;23.53;52.81
6393;BME280;3229;42.674;23.282;2022-07-23T02:41:33;94938.28;;;23.51;52.59
6393;BME280;3229;42.674;23.282;2022-07-23T02:44:00;94877.13;;;23.09;52.34
6393;BME280;3229;42.674;23.282;2022-07-23T02:46:27;94926.53;;;23.36;52.40
6393;BME280;3229;42.674;23.282;2022-07-23T02:48:55;94942.97;;;23.43;52.17
6393;BME280;3229;42.674;23.282;2022-07-23T02:51:22;94882.03;;;22.99;51.91
6393;BME280;3229;42.674;23.282;2022-07-23T02:53:49;94903.84;;;23.11;51.72
6393;BME280;3229;42.674;23.282;2022-07-23T02:56:25;94941.41;;;23.35;51.55
6393;BME280;3229;42.674;23.282;2022-07-23T02:58:52;94951.50;;;23.32;51.68
6393;BME280;3229;42.674;23.282;2022-07-23T03:01:18;94937.31;;;23.14;51.59
6393;BME280;3229;42.674;23.282;2022-07-23T03:03:45;94954.13;;;23.25;51.61
6393;BME280;3229;42.674;23.282;2022-07-23T03:06:14;94937.53;;;23.13;51.63
6393;BME280;3229;42.674;23.282;2022-07-23T03:08:40;94954.75;;;23.20;51.55
6393;BME280;3229;42.674;23.282;2022-07-23T03:11:07;94966.63;;;23.16;51.95
6393;BME280;3229;42.674;23.282;2022-07-23T03:13:36;94928.00;;;22.87;51.17
6393;BME280;3229;42.674;23.282;2022-07-23T03:16:04;94920.81;;;22.82;51.01
6393;BME280;3229;42.674;23.282;2022-07-23T03:18:31;94877.22;;;22.51;51.01
6393;BME280;3229;42.674;23.282;2022-07-23T03:20:58;94961.25;;;23.04;51.14
6393;BME280;3229;42.674;23.282;2022-07-23T03:23:26;94973.66;;;23.09;51.27
6393;BME280;3229;42.674;23.282;2022-07-23T03:25:53;94974.69;;;23.08;51.24
6393;BME280;3229;42.674;23.282;2022-07-23T03:28:20;94967.72;;;22.95;51.61
6393;BME280;3229;42.674;23.282;2022-07-23T03:30:47;94966.34;;;22.93;51.66
6393;BME280;3229;42.674;23.282;2022-07-23T03:33:14;94985.56;;;22.98;51.76
6393;BME280;3229;42.674;23.282;2022-07-23T03:35:42;94977.34;;;22.95;52.30
6393;BME280;3229;42.674;23.282;2022-07-23T03:38:09;94965.13;;;22.82;52.61
6393;BME280;3229;42.674;23.282;2022-07-23T03:40:37;94979.38;;;22.93;52.95
6393;BME280;3229;42.674;23.282;2022-07-23T03:43:04;94986.38;;;22.92;53.57
6393;BME280;3229;42.674;23.282;2022-07-23T03:45:31;94991.41;;;22.94;53.74
6393;BME280;3229;42.674;23.282;2022-07-23T03:47:59;94992.22;;;22.94;54.15
6393;BME280;3229;42.674;23.282;2022-07-23T03:50:26;94984.38;;;22.94;54.37
6393;BME280;3229;42.674;23.282;2022-07-23T03:52:53;94981.78;;;22.94;54.83
6393;BME280;3229;42.674;23.282;2022-07-23T03:55:20;94984.59;;;22.93;55.23
6393;BME280;3229;42.674;23.282;2022-07-23T03:57:48;94988.19;;;22.92;55.37
6393;BME280;3229;42.674;23.282;2022-07-23T04:00:15;94991.81;;;22.91;55.72
6393;BME280;3229;42.674;23.282;2022-07-23T04:02:42;94953.34;;;22.66;55.68
6393;BME280;3229;42.674;23.282;2022-07-23T04:05:09;94990.38;;;22.88;55.45
6393;BME280;3229;42.674;23.282;2022-07-23T04:07:36;94984.38;;;22.88;55.29
6393;BME280;3229;42.674;23.282;2022-07-23T04:10:03;94978.34;;;22.87;54.92
6393;BME280;3229;42.674;23.282;2022-07-23T04:12:30;94982.78;;;22.87;55.15
6393;BME280;3229;42.674;23.282;2022-07-23T04:14:58;94986.19;;;22.87;55.42
6393;BME280;3229;42.674;23.282;2022-07-23T04:17:25;94969.78;;;22.80;55.32
6393;BME280;3229;42.674;23.282;2022-07-23T04:19:52;94989.59;;;22.88;55.21
6393;BME280;3229;42.674;23.282;2022-07-23T04:22:19;94972.97;;;22.82;55.53
6393;BME280;3229;42.674;23.282;2022-07-23T04:24:46;94998.00;;;22.96;55.42
6393;BME280;3229;42.674;23.282;2022-07-23T04:27:13;94995.41;;;22.96;55.25
6393;BME280;3229;42.674;23.282;2022-07-23T04:29:40;94990.78;;;22.98;55.56
6393;BME280;3229;42.674;23.282;2022-07-23T04:32:08;94984.59;;;22.93;55.79
6393;BME280;3229;42.674;23.282;2022-07-23T04:34:35;94996.41;;;23.02;56.13
6393;BME280;3229;42.674;23.282;2022-07-23T04:37:01;94957.13;;;22.77;56.07
6393;BME280;3229;42.674;23.282;2022-07-23T04:39:28;94984.56;;;22.99;56.18
6393;BME280;3229;42.674;23.282;2022-07-23T04:41:56;94985.75;;;22.97;56.13
6393;BME280;3229;42.674;23.282;2022-07-23T04:44:22;94998.34;;;23.13;55.89
6393;BME280;3229;42.674;23.282;2022-07-23T04:46:49;94983.34;;;23.02;56.23
6393;BME280;3229;42.674;23.282;2022-07-23T04:49:17;95013.19;;;23.19;56.05
6393;BME280;3229;42.674;23.282;2022-07-23T04:51:44;95005.53;;;23.24;55.87
6393;BME280;3229;42.674;23.282;2022-07-23T04:54:11;94989.31;;;23.16;55.82
6393;BME280;3229;42.674;23.282;2022-07-23T04:56:38;95013.53;;;23.29;55.87
6393;BME280;3229;42.674;23.282;2022-07-23T04:59:07;94910.03;;;22.65;55.57
6393;BME280;3229;42.674;23.282;2022-07-23T05:01:34;94993.06;;;23.26;55.48
6393;BME280;3229;42.674;23.282;2022-07-23T05:04:01;94970.03;;;23.17;55.24
6393;BME280;3229;42.674;23.282;2022-07-23T05:06:29;94994.78;;;23.39;55.13
6393;BME280;3229;42.674;23.282;2022-07-23T05:08:56;94928.34;;;23.03;55.11
6393;BME280;3229;42.674;23.282;2022-07-23T05:11:23;95002.53;;;23.52;55.43
6393;BME280;3229;42.674;23.282;2022-07-23T05:13:51;95005.69;;;23.61;55.14
6393;BME280;3229;42.674;23.282;2022-07-23T05:16:18;95010.28;;;23.72;55.39
6393;BME280;3229;42.674;23.282;2022-07-23T05:18:45;95013.81;;;23.85;55.48
6393;BME280;3229;42.674;23.282;2022-07-23T05:21:12;95016.34;;;23.98;55.84
6393;BME280;3229;42.674;23.282;2022-07-23T05:23:40;94986.56;;;23.99;55.53
6393;BME280;3229;42.674;23.282;2022-07-23T05:26:07;95011.63;;;24.32;54.38
6393;BME280;3229;42.674;23.282;2022-07-23T05:28:34;95007.09;;;24.45;53.74
6393;BME280;3229;42.674;23.282;2022-07-23T05:31:01;95013.94;;;24.65;53.10
6393;BME280;3229;42.674;23.282;2022-07-23T05:33:29;94956.78;;;24.50;53.13
6393;BME280;3229;42.674;23.282;2022-07-23T05:36:00;95008.13;;;24.99;53.37
6393;BME280;3229;42.674;23.282;2022-07-23T05:38:27;95015.41;;;25.16;52.47
6393;BME280;3229;42.674;23.282;2022-07-23T05:40:56;95003.59;;;25.13;51.72
6393;BME280;3229;42.674;23.282;2022-07-23T05:43:23;95018.34;;;25.38;51.44
6393;BME280;3229;42.674;23.282;2022-07-23T05:45:50;95013.66;;;25.58;51.27
6393;BME280;3229;42.674;23.282;2022-07-23T05:48:17;94982.53;;;25.50;51.18
6393;BME280;3229;42.674;23.282;2022-07-23T05:50:44;94996.50;;;25.74;50.80
6393;BME280;3229;42.674;23.282;2022-07-23T05:53:10;95015.38;;;26.06;50.58
6393;BME280;3229;42.674;23.282;2022-07-23T05:55:37;94967.03;;;25.90;50.54
6393;BME280;3229;42.674;23.282;2022-07-23T05:58:06;95015.06;;;26.38;49.63
6393;BME280;3229;42.674;23.282;2022-07-23T06:00:33;95016.81;;;26.56;48.82
6393;BME280;3229;42.674;23.282;2022-07-23T06:03:00;95001.28;;;26.66;48.15
6393;BME280;3229;42.674;23.282;2022-07-23T06:05:27;95011.19;;;26.87;48.10
6393;BME280;3229;42.674;23.282;2022-07-23T06:07:54;95007.34;;;27.07;46.70
6393;BME280;3229;42.674;23.282;2022-07-23T06:10:21;94991.75;;;27.12;46.40
6393;BME280;3229;42.674;23.282;2022-07-23T06:12:47;95001.91;;;27.37;45.79
6393;BME280;3229;42.674;23.282;2022-07-23T06:15:16;95001.75;;;27.55;45.24
6393;BME280;3229;42.674;23.282;2022-07-23T06:17:42;95005.66;;;27.69;45.55
6393;BME280;3229;42.674;23.282;2022-07-23T06:20:10;94983.19;;;27.62;45.77
6393;BME280;3229;42.674;23.282;2022-07-23T06:22:37;95004.03;;;27.97;45.21
6393;BME280;3229;42.674;23.282;2022-07-23T06:25:06;95010.59;;;28.11;44.77
6393;BME280;3229;42.674;23.282;2022-07-23T06:27:33;95002.13;;;28.26;45.22
6393;BME280;3229;42.674;23.282;2022-07-23T06:30:00;95006.66;;;28.47;44.56
6393;BME280;3229;42.674;23.282;2022-07-23T06:32:28;94999.00;;;28.63;44.60
6393;BME280;3229;42.674;23.282;2022-07-23T06:34:55;94998.66;;;28.76;44.57
6393;BME280;3229;42.674;23.282;2022-07-23T06:37:22;95002.13;;;28.82;44.63
6393;BME280;3229;42.674;23.282;2022-07-23T06:39:51;95003.25;;;29.08;43.29
6393;BME280;3229;42.674;23.282;2022-07-23T06:42:17;95000.00;;;29.22;42.98
6393;BME280;3229;42.674;23.282;2022-07-23T06:44:44;94993.44;;;29.25;43.07
6393;BME280;3229;42.674;23.282;2022-07-23T06:47:11;95008.47;;;29.52;41.83
6393;BME280;3229;42.674;23.282;2022-07-23T06:49:39;95009.13;;;29.59;41.62
6393;BME280;3229;42.674;23.282;2022-07-23T06:52:07;95011.84;;;29.69;41.56
6393;BME280;3229;42.674;23.282;2022-07-23T06:54:34;95002.69;;;29.77;41.75
6393;BME280;3229;42.674;23.282;2022-07-23T06:57:01;94966.56;;;29.50;41.69
6393;BME280;3229;42.674;23.282;2022-07-23T06:59:28;94999.81;;;29.83;41.52
6393;BME280;3229;42.674;23.282;2022-07-23T07:01:55;95005.09;;;29.83;41.11
6393;BME280;3229;42.674;23.282;2022-07-23T07:04:22;95001.53;;;29.94;41.01
6393;BME280;3229;42.674;23.282;2022-07-23T07:06:51;95000.31;;;30.07;41.07
6393;BME280;3229;42.674;23.282;2022-07-23T07:09:17;95005.94;;;30.16;41.04
6393;BME280;3229;42.674;23.282;2022-07-23T07:11:44;95001.28;;;30.28;41.14
6393;BME280;3229;42.674;23.282;2022-07-23T07:14:11;94992.63;;;30.38;39.96
6393;BME280;3229;42.674;23.282;2022-07-23T07:16:38;94987.97;;;30.55;39.78
6393;BME280;3229;42.674;23.282;2022-07-23T07:19:05;94940.91;;;30.37;39.80
6393;BME280;3229;42.674;23.282;2022-07-23T07:21:32;94987.34;;;30.80;39.57
6393;BME280;3229;42.674;23.282;2022-07-23T07:24:00;94991.56;;;30.81;39.10
6393;BME280;3229;42.674;23.282;2022-07-23T07:26:27;94989.78;;;30.92;39.45
6393;BME280;3229;42.674;23.282;2022-07-23T07:28:54;94983.72;;;30.96;39.06
6393;BME280;3229;42.674;23.282;2022-07-23T07:31:21;94973.19;;;31.02;39.18
6393;BME280;3229;42.674;23.282;2022-07-23T07:33:48;94978.25;;;31.13;39.45
6393;BME280;3229;42.674;23.282;2022-07-23T07:36:15;94964.25;;;31.18;38.27
6393;BME280;3229;42.674;23.282;2022-07-23T07:38:42;94973.03;;;31.34;38.54
6393;BME280;3229;42.674;23.282;2022-07-23T07:41:10;94974.38;;;31.36;39.17
6393;BME280;3229;42.674;23.282;2022-07-23T07:43:37;94965.13;;;31.44;38.88
6393;BME280;3229;42.674;23.282;2022-07-23T07:46:04;94971.50;;;31.53;38.50
6393;BME280;3229;42.674;23.282;2022-07-23T07:48:35;94976.78;;;31.63;38.43
6393;BME280;3229;42.674;23.282;2022-07-23T07:51:02;94960.91;;;31.63;38.61
6393;BME280;3229;42.674;23.282;2022-07-23T07:53:29;94961.72;;;31.79;37.93
6393;BME280;3229;42.674;23.282;2022-07-23T07:55:56;94966.78;;;32.01;37.62
6393;BME280;3229;42.674;23.282;2022-07-23T07:58:24;94962.53;;;32.15;37.15
6393;BME280;3229;42.674;23.282;2022-07-23T08:00:51;94934.78;;;31.92;36.93
6393;BME280;3229;42.674;23.282;2022-07-23T08:03:17;94974.69;;;32.16;37.37
6393;BME280;3229;42.674;23.282;2022-07-23T08:05:44;94944.81;;;32.06;36.58
6393;BME280;3229;42.674;23.282;2022-07-23T08:08:12;94971.25;;;32.26;36.52
6393;BME280;3229;42.674;23.282;2022-07-23T08:10:40;94965.16;;;32.36;36.69
6393;BME280;3229;42.674;23.282;2022-07-23T08:13:07;94952.47;;;32.43;36.24
6393;BME280;3229;42.674;23.282;2022-07-23T08:15:35;94969.38;;;32.57;36.63
6393;BME280;3229;42.674;23.282;2022-07-23T08:18:02;94887.63;;;32.15;36.11
6393;BME280;3229;42.674;23.282;2022-07-23T08:20:29;94920.41;;;32.44;35.98
6393;BME280;3229;42.674;23.282;2022-07-23T08:22:57;94790.91;;;31.53;36.27
6393;BME280;3229;42.674;23.282;2022-07-23T08:25:26;94963.19;;;32.77;36.10
6393;BME280;3229;42.674;23.282;2022-07-23T08:27:53;94966.34;;;32.84;35.46
6393;BME280;3229;42.674;23.282;2022-07-23T08:30:21;94959.16;;;32.90;35.68
6393;BME280;3229;42.674;23.282;2022-07-23T08:32:54;94910.56;;;32.55;35.03
6393;BME280;3229;42.674;23.282;2022-07-23T08:35:26;94951.28;;;32.80;35.29
6393;BME280;3229;42.674;23.282;2022-07-23T08:37:54;94960.81;;;32.76;35.42
6393;BME280;3229;42.674;23.282;2022-07-23T08:40:21;94869.31;;;32.29;35.55
6393;BME280;3229;42.674;23.282;2022-07-23T08:42:50;94956.00;;;32.93;35.14
6393;BME280;3229;42.674;23.282;2022-07-23T08:45:18;94900.19;;;32.64;35.09
6393;BME280;3229;42.674;23.282;2022-07-23T08:47:49;94941.16;;;32.97;35.10
6393;BME280;3229;42.674;23.282;2022-07-23T08:50:18;94948.25;;;33.12;35.13
6393;BME280;3229;42.674;23.282;2022-07-23T08:52:45;94921.03;;;32.96;35.02
6393;BME280;3229;42.674;23.282;2022-07-23T08:55:12;94880.28;;;32.82;35.11
6393;BME280;3229;42.674;23.282;2022-07-23T08:57:39;94946.03;;;33.24;35.11
6393;BME280;3229;42.674;23.282;2022-07-23T09:00:07;94942.56;;;33.29;34.87
6393;BME280;3229;42.674;23.282;2022-07-23T09:02:43;94888.69;;;32.94;34.99
6393;BME280;3229;42.674;23.282;2022-07-23T09:05:12;94943.84;;;33.36;35.04
6393;BME280;3229;42.674;23.282;2022-07-23T09:08:08;94882.56;;;32.99;34.61
6393;BME280;3229;42.674;23.282;2022-07-23T09:10:43;94826.28;;;32.67;34.14
6393;BME280;3229;42.674;23.282;2022-07-23T09:13:29;94936.13;;;33.45;34.58
6393;BME280;3229;42.674;23.282;2022-07-23T09:15:58;94945.13;;;33.49;34.38
6393;BME280;3229;42.674;23.282;2022-07-23T09:18:31;94944.31;;;33.54;34.32
6393;BME280;3229;42.674;23.282;2022-07-23T09:21:06;94935.06;;;33.51;33.81
6393;BME280;3229;42.674;23.282;2022-07-23T09:23:39;94935.50;;;33.58;33.61
6393;BME280;3229;42.674;23.282;2022-07-23T09:26:21;94944.50;;;33.62;33.44
6393;BME280;3229;42.674;23.282;2022-07-23T09:28:54;94829.09;;;32.91;33.37
6393;BME280;3229;42.674;23.282;2022-07-23T09:31:22;94851.22;;;33.11;33.41
6393;BME280;3229;42.674;23.282;2022-07-23T09:33:49;94937.00;;;33.75;32.72
6393;BME280;3229;42.674;23.282;2022-07-23T09:36:27;94889.97;;;33.51;32.24
6393;BME280;3229;42.674;23.282;2022-07-23T09:38:55;94923.38;;;33.86;32.51
6393;BME280;3229;42.674;23.282;2022-07-23T09:41:22;94923.31;;;33.91;32.44
6393;BME280;3229;42.674;23.282;2022-07-23T09:43:55;94839.63;;;33.41;32.50
6393;BME280;3229;42.674;23.282;2022-07-23T09:46:23;94892.31;;;33.87;31.59
6393;BME280;3229;42.674;23.282;2022-07-23T09:48:51;94922.69;;;34.05;31.72
6393;BME280;3229;42.674;23.282;2022-07-23T09:51:19;94911.28;;;34.04;31.82
6393;BME280;3229;42.674;23.282;2022-07-23T09:53:50;94920.22;;;34.13;31.76
6393;BME280;3229;42.674;23.282;2022-07-23T09:56:20;94919.69;;;34.16;31.76
6393;BME280;3229;42.674;23.282;2022-07-23T09:58:50;94907.44;;;34.20;31.82
6393;BME280;3229;42.674;23.282;2022-07-23T10:01:18;94913.75;;;34.25;31.28
6393;BME280;3229;42.674;23.282;2022-07-23T10:03:46;94899.94;;;34.23;30.80
6393;BME280;3229;42.674;23.282;2022-07-23T10:06:14;94851.63;;;33.97;29.78
6393;BME280;3229;42.674;23.282;2022-07-23T10:08:44;94898.19;;;34.37;29.65
6393;BME280;3229;42.674;23.282;2022-07-23T10:11:13;94895.84;;;34.35;30.23
6393;BME280;3229;42.674;23.282;2022-07-23T10:13:43;94894.50;;;34.38;29.91
6393;BME280;3229;42.674;23.282;2022-07-23T10:16:27;94890.81;;;34.34;30.00
6393;BME280;3229;42.674;23.282;2022-07-23T10:18:54;94837.25;;;34.03;30.05
6393;BME280;3229;42.674;23.282;2022-07-23T10:21:25;94782.69;;;33.62;29.64
6393;BME280;3229;42.674;23.282;2022-07-23T10:24:04;94855.91;;;34.22;30.41
6393;BME280;3229;42.674;23.282;2022-07-23T10:26:38;94691.66;;;33.14;30.24
6393;BME280;3229;42.674;23.282;2022-07-23T10:29:16;94879.56;;;34.42;29.57
6393;BME280;3229;42.674;23.282;2022-07-23T10:31:56;94880.59;;;34.46;29.32
6393;BME280;3229;42.674;23.282;2022-07-23T10:34:34;94850.22;;;34.28;28.65
6393;BME280;3229;42.674;23.282;2022-07-23T10:37:11;94873.16;;;34.48;29.01
6393;BME280;3229;42.674;23.282;2022-07-23T10:39:39;94875.47;;;34.55;28.47
6393;BME280;3229;42.674;23.282;2022-07-23T10:42:08;94853.28;;;34.40;29.26
6393;BME280;3229;42.674;23.282;2022-07-23T10:44:40;94870.94;;;34.55;29.21
6393;BME280;3229;42.674;23.282;2022-07-23T10:47:08;94853.50;;;34.44;29.04
6393;BME280;3229;42.674;23.282;2022-07-23T10:50:21;94865.28;;;34.62;28.42
6393;BME280;3229;42.674;23.282;2022-07-23T10:55:52;94849.09;;;34.58;26.76
6393;BME280;3229;42.674;23.282;2022-07-23T10:58:47;94855.94;;;34.64;26.81
6393;BME280;3229;42.674;23.282;2022-07-23T11:01:35;94840.72;;;34.51;26.46
6393;BME280;3229;42.674;23.282;2022-07-23T11:04:02;94850.13;;;34.62;25.20
6393;BME280;3229;42.674;23.282;2022-07-23T11:07:06;94857.03;;;34.63;25.34
6393;BME280;3229;42.674;23.282;2022-07-23T11:09:39;94850.91;;;34.63;25.47
6393;BME280;3229;42.674;23.282;2022-07-23T11:12:34;94838.44;;;34.63;25.13
6393;BME280;3229;42.674;23.282;2022-07-23T11:15:06;94836.56;;;34.64;26.16
6393;BME280;3229;42.674;23.282;2022-07-23T11:17:36;94836.56;;;34.64;25.81
6393;BME280;3229;42.674;23.282;2022-07-23T11:20:21;94809.63;;;34.52;25.47
6393;BME280;3229;42.674;23.282;2022-07-23T11:22:51;94832.25;;;34.68;25.56
6393;BME280;3229;42.674;23.282;2022-07-23T11:25:32;94819.47;;;34.70;26.00
6393;BME280;3229;42.674;23.282;2022-07-23T11:28:14;94818.38;;;34.71;24.32
6393;BME280;3229;42.674;23.282;2022-07-23T11:30:44;94797.19;;;34.47;24.49
6393;BME280;3229;42.674;23.282;2022-07-23T11:33:20;94820.31;;;34.65;24.80
6393;BME280;3229;42.674;23.282;2022-07-23T11:35:50;94732.28;;;34.10;24.81
6393;BME280;3229;42.674;23.282;2022-07-23T11:38:27;94814.94;;;34.70;24.28
6393;BME280;3229;42.674;23.282;2022-07-23T11:40:56;94799.94;;;34.61;23.41
6393;BME280;3229;42.674;23.282;2022-07-23T11:43:24;94786.44;;;34.57;23.26
6393;BME280;3229;42.674;23.282;2022-07-23T11:45:53;94811.00;;;34.68;22.98
6393;BME280;3229;42.674;23.282;2022-07-23T11:48:24;94788.66;;;34.50;23.05
6393;BME280;3229;42.674;23.282;2022-07-23T11:50:52;94806.25;;;34.65;23.26
6393;BME280;3229;42.674;23.282;2022-07-23T11:53:22;94802.28;;;34.62;23.60
6393;BME280;3229;42.674;23.282;2022-07-23T11:55:50;94766.41;;;34.41;23.49
6393;BME280;3229;42.674;23.282;2022-07-23T11:58:17;94800.63;;;34.66;23.59
6393;BME280;3229;42.674;23.282;2022-07-23T12:00:44;94732.13;;;34.26;23.47
6393;BME280;3229;42.674;23.282;2022-07-23T12:03:10;94803.06;;;34.63;23.67
6393;BME280;3229;42.674;23.282;2022-07-23T12:05:39;94785.72;;;34.52;23.51
6393;BME280;3229;42.674;23.282;2022-07-23T12:08:08;94793.47;;;34.67;23.49
6393;BME280;3229;42.674;23.282;2022-07-23T12:10:37;94778.19;;;34.59;22.98
6393;BME280;3229;42.674;23.282;2022-07-23T12:13:06;94789.16;;;34.71;23.25
6393;BME280;3229;42.674;23.282;2022-07-23T12:15:35;94720.97;;;34.24;22.30
6393;BME280;3229;42.674;23.282;2022-07-23T12:18:04;94786.31;;;34.67;22.22
6393;BME280;3229;42.674;23.282;2022-07-23T12:20:35;94766.59;;;34.50;21.97
6393;BME280;3229;42.674;23.282;2022-07-23T12:23:05;94790.53;;;34.68;22.32
6393;BME280;3229;42.674;23.282;2022-07-23T12:25:34;94789.53;;;34.64;22.48
6393;BME280;3229;42.674;23.282;2022-07-23T12:28:03;94785.28;;;34.63;22.59
6393;BME280;3229;42.674;23.282;2022-07-23T12:30:33;94770.78;;;34.56;22.79
6393;BME280;3229;42.674;23.282;2022-07-23T12:33:00;94764.59;;;34.60;22.38
6393;BME280;3229;42.674;23.282;2022-07-23T12:35:33;94702.75;;;34.17;22.59
6393;BME280;3229;42.674;23.282;2022-07-23T12:38:03;94767.19;;;34.65;22.79
6393;BME280;3229;42.674;23.282;2022-07-23T12:40:32;94747.97;;;34.55;23.09
6393;BME280;3229;42.674;23.282;2022-07-23T12:43:01;94690.50;;;34.21;23.34
6393;BME280;3229;42.674;23.282;2022-07-23T12:45:42;94734.94;;;34.53;23.13
6393;BME280;3229;42.674;23.282;2022-07-23T12:48:16;94755.13;;;34.73;23.48
6393;BME280;3229;42.674;23.282;2022-07-23T12:50:48;94754.34;;;34.73;22.98
6393;BME280;3229;42.674;23.282;2022-07-23T12:53:18;94714.56;;;34.49;22.19
6393;BME280;3229;42.674;23.282;2022-07-23T12:55:47;94747.81;;;34.65;22.02
6393;BME280;3229;42.674;23.282;2022-07-23T12:58:16;94754.25;;;34.78;21.77
6393;BME280;3229;42.674;23.282;2022-07-23T13:00:55;94748.44;;;34.76;21.79
6393;BME280;3229;42.674;23.282;2022-07-23T13:03:24;94734.75;;;34.68;21.71
6393;BME280;3229;42.674;23.282;2022-07-23T13:05:51;94696.09;;;34.38;22.37
6393;BME280;3229;42.674;23.282;2022-07-23T13:08:20;94715.47;;;34.58;21.50
6393;BME280;3229;42.674;23.282;2022-07-23T13:10:47;94744.91;;;34.80;21.80
6393;BME280;3229;42.674;23.282;2022-07-23T13:13:17;94746.78;;;34.80;21.97
6393;BME280;3229;42.674;23.282;2022-07-23T13:15:46;94744.13;;;34.80;22.40
6393;BME280;3229;42.674;23.282;2022-07-23T13:18:13;94741.19;;;34.81;22.53
6393;BME280;3229;42.674;23.282;2022-07-23T13:20:42;94700.50;;;34.48;22.69
6393;BME280;3229;42.674;23.282;2022-07-23T13:23:09;94746.50;;;34.81;23.07